Clear, Alaska
Current Conditions -  °F | °C
As of 3:53 PM on Wednesday 22 Oct 2014 (Local Time) from PANN Reporting Station
Overcast Overcast  
Wind Chill: 29°   Ceiling: 2700
Heat Index: 29°   Visibility: 10mi
Dew Point: 21°   Wind: 0mph
Humidity: 72%   Direction: NA
Pressure: 29.62"   Gusts: NA
Location:  64.34°N, 149.16°W
Report Text: PANN 222353Z AUTO 00000KT 10SM OVC027 M02/M06 A2962 RMK AO2 SLP039 T10171061 11017 21094 53005 TSNO
Loading
Personal Weather Stations






























Interactive Weather Map
Tropical Storm Tracking
New forecast layout! Learn more

10-Day Weather Forecast

Advertisements
Track Severe Weather on mobile